createdAt,value
2018-09-25T00:02:20.614Z,98.00
2018-09-25T00:04:54.343Z,97.30
2018-09-25T00:07:28.005Z,98.20
2018-09-25T00:10:01.623Z,97.30
2018-09-25T00:12:35.199Z,97.70
2018-09-25T00:15:08.940Z,97.60
2018-09-25T00:17:42.555Z,98.50
2018-09-25T00:20:16.275Z,99.10
2018-09-25T00:22:49.980Z,99.80
2018-09-25T00:25:23.678Z,99.80
2018-09-25T00:27:57.292Z,99.80
2018-09-25T00:30:30.840Z,99.80
2018-09-25T00:33:04.631Z,99.80
2018-09-25T00:35:38.224Z,99.80
2018-09-25T00:38:11.879Z,99.80
2018-09-25T00:40:45.404Z,99.80
2018-09-25T00:43:19.090Z,99.80
2018-09-25T00:45:52.708Z,99.80
2018-09-25T00:48:26.316Z,99.80
2018-09-25T00:51:00.933Z,99.80
2018-09-25T00:53:35.476Z,99.80
2018-09-25T00:56:09.508Z,99.80
2018-09-25T00:58:43.115Z,99.80
2018-09-25T01:01:16.901Z,99.80
2018-09-25T01:03:50.592Z,99.80
2018-09-25T01:06:24.204Z,99.80
2018-09-25T01:08:57.827Z,99.80
2018-09-25T01:11:31.463Z,99.80
2018-09-25T01:14:05.136Z,99.80
2018-09-25T01:16:38.759Z,99.80
2018-09-25T01:19:12.542Z,99.80
2018-09-25T01:21:46.109Z,99.80
2018-09-25T01:24:19.828Z,99.80
2018-09-25T01:26:53.634Z,99.80
2018-09-25T01:29:27.359Z,99.80
2018-09-25T01:32:01.175Z,99.80
2018-09-25T01:34:34.952Z,99.80
2018-09-25T01:37:08.715Z,99.80
2018-09-25T01:39:42.477Z,99.80
2018-09-25T01:42:16.106Z,99.80
2018-09-25T01:44:49.756Z,99.80
2018-09-25T01:47:23.437Z,99.80
2018-09-25T01:49:56.963Z,99.80
2018-09-25T01:52:30.458Z,99.80
2018-09-25T01:55:04.900Z,99.80
2018-09-25T01:57:38.650Z,99.80
2018-09-25T02:00:12.481Z,99.80
2018-09-25T02:02:46.311Z,99.80
2018-09-25T02:05:20.178Z,99.80
2018-09-25T02:07:53.768Z,99.80
2018-09-25T02:10:27.695Z,99.80
2018-09-25T02:13:01.284Z,99.80
2018-09-25T02:15:34.957Z,99.80
2018-09-25T02:18:08.780Z,99.80
2018-09-25T02:20:42.408Z,99.80
2018-09-25T02:23:16.099Z,99.80
2018-09-25T02:25:49.871Z,99.80
2018-09-25T02:28:23.628Z,99.80
2018-09-25T02:30:57.393Z,99.80
2018-09-25T02:33:30.998Z,99.80
2018-09-25T02:36:04.644Z,99.80
2018-09-25T02:38:38.333Z,99.80
2018-09-25T02:41:12.101Z,99.80
2018-09-25T02:43:45.988Z,99.80
2018-09-25T02:46:20.812Z,99.80
2018-09-25T02:48:54.492Z,99.80
2018-09-25T02:51:30.270Z,99.80
2018-09-25T02:54:03.925Z,99.80
2018-09-25T02:56:37.709Z,99.80
2018-09-25T02:59:11.581Z,99.80
2018-09-25T03:01:45.277Z,99.80
2018-09-25T03:04:18.906Z,99.80
2018-09-25T03:06:52.618Z,99.80
2018-09-25T03:09:27.427Z,99.80
2018-09-25T03:12:01.014Z,99.80
2018-09-25T03:14:35.676Z,99.80
2018-09-25T03:17:09.882Z,99.80
2018-09-25T03:19:43.490Z,99.80
2018-09-25T03:22:17.360Z,99.80
2018-09-25T03:24:50.993Z,99.80
2018-09-25T03:27:24.637Z,99.80
2018-09-25T03:29:58.214Z,99.80
2018-09-25T03:32:32.060Z,99.80
2018-09-25T03:35:05.789Z,99.80
2018-09-25T03:37:39.403Z,99.80
2018-09-25T03:40:13.180Z,99.80
2018-09-25T03:42:47.249Z,99.80
2018-09-25T03:45:20.966Z,99.80
2018-09-25T03:47:54.775Z,99.80
2018-09-25T03:50:28.515Z,99.80
2018-09-25T03:53:02.165Z,99.80
2018-09-25T03:55:36.910Z,99.80
2018-09-25T03:58:10.571Z,99.80
2018-09-25T04:00:44.314Z,99.80
2018-09-25T04:03:18.048Z,99.80
2018-09-25T04:05:52.771Z,99.80
2018-09-25T04:08:26.631Z,99.80
2018-09-25T04:11:00.367Z,99.80
2018-09-25T04:13:34.065Z,99.80
2018-09-25T04:16:07.705Z,99.80
2018-09-25T04:18:41.358Z,99.80
2018-09-25T04:21:15.063Z,99.80
2018-09-25T04:23:48.812Z,99.80
2018-09-25T04:26:22.717Z,99.80
2018-09-25T04:28:57.025Z,99.80
2018-09-25T04:31:30.989Z,99.80
2018-09-25T04:34:04.573Z,99.80
2018-09-25T04:36:40.894Z,99.80
2018-09-25T04:39:14.771Z,99.80
2018-09-25T04:41:48.669Z,99.80
2018-09-25T04:44:22.495Z,99.80
2018-09-25T04:46:56.207Z,99.80
2018-09-25T04:49:30.070Z,99.80
2018-09-25T04:52:03.624Z,99.80
2018-09-25T04:54:37.355Z,99.80
2018-09-25T04:57:11.178Z,99.80
2018-09-25T04:59:44.937Z,99.80
2018-09-25T05:02:18.616Z,99.80
2018-09-25T05:04:52.367Z,99.80
2018-09-25T05:07:26.286Z,99.80
2018-09-25T05:10:00.152Z,99.80
2018-09-25T05:12:33.855Z,99.80
2018-09-25T05:15:07.613Z,99.80
2018-09-25T05:17:41.649Z,99.80
2018-09-25T05:20:16.032Z,99.80
2018-09-25T05:22:50.767Z,99.80
2018-09-25T05:25:24.646Z,99.80
2018-09-25T05:27:58.949Z,99.80
2018-09-25T05:30:32.710Z,99.80
2018-09-25T05:33:06.255Z,99.80
2018-09-25T05:35:40.084Z,99.80
2018-09-25T05:38:13.987Z,99.80
2018-09-25T05:40:47.669Z,99.80
2018-09-25T05:43:21.302Z,99.80
2018-09-25T05:45:55.055Z,99.80
2018-09-25T05:48:29.339Z,99.80
2018-09-25T05:51:02.849Z,99.80
2018-09-25T05:53:36.570Z,99.80
2018-09-25T05:56:10.373Z,99.80
2018-09-25T05:58:43.987Z,99.80
2018-09-25T06:01:17.765Z,99.80
2018-09-25T06:03:51.398Z,99.80
2018-09-25T06:06:25.254Z,99.80
2018-09-25T06:08:58.873Z,99.80
2018-09-25T06:11:32.736Z,99.80
2018-09-25T06:14:06.230Z,99.80
2018-09-25T06:16:39.896Z,99.80
2018-09-25T06:19:13.610Z,99.80
2018-09-25T06:21:47.453Z,99.80
2018-09-25T06:24:21.304Z,99.80
2018-09-25T06:26:54.941Z,99.80
2018-09-25T06:29:28.658Z,99.80
2018-09-25T06:32:02.301Z,99.80
2018-09-25T06:34:36.115Z,99.80
2018-09-25T06:37:09.833Z,99.80
2018-09-25T06:39:43.484Z,99.80
2018-09-25T06:42:17.206Z,99.80
2018-09-25T06:44:50.738Z,99.80
2018-09-25T06:47:25.139Z,99.80
2018-09-25T06:49:58.644Z,99.80
2018-09-25T06:52:32.517Z,99.80
2018-09-25T06:55:06.343Z,99.80
2018-09-25T06:57:39.828Z,99.80
2018-09-25T07:00:13.624Z,99.80
2018-09-25T07:02:47.688Z,99.80
2018-09-25T07:05:21.332Z,99.80
2018-09-25T07:07:55.059Z,99.80
2018-09-25T07:10:29.043Z,99.80
2018-09-25T07:13:02.389Z,99.80
2018-09-25T07:15:35.995Z,99.80
2018-09-25T07:18:16.157Z,99.80
2018-09-25T07:20:49.837Z,99.80
2018-09-25T07:23:23.607Z,99.80
2018-09-25T07:25:57.260Z,99.80
2018-09-25T07:28:31.035Z,99.80
2018-09-25T07:31:05.026Z,99.80
2018-09-25T07:33:38.580Z,99.80
2018-09-25T07:36:12.832Z,99.80
2018-09-25T07:38:46.557Z,99.80
2018-09-25T07:41:20.735Z,99.10
2018-09-25T07:43:54.664Z,98.90
2018-09-25T07:46:28.404Z,98.50
2018-09-25T07:49:02.099Z,98.50
2018-09-25T07:51:35.932Z,98.00
2018-09-25T07:54:09.804Z,97.60
2018-09-25T07:56:43.645Z,98.00
2018-09-25T07:59:17.328Z,97.70
2018-09-25T08:01:51.054Z,96.70
2018-09-25T08:04:24.695Z,96.50
2018-09-25T08:06:58.456Z,96.40
2018-09-25T08:09:32.181Z,96.30
2018-09-25T08:12:06.544Z,95.40
2018-09-25T08:14:40.292Z,93.90
2018-09-25T08:17:13.928Z,93.60
2018-09-25T08:19:47.638Z,93.60
2018-09-25T08:22:21.682Z,93.70
2018-09-25T08:24:55.392Z,93.40
2018-09-25T08:27:29.106Z,93.80
2018-09-25T08:30:02.947Z,94.00
2018-09-25T08:32:36.804Z,92.80
2018-09-25T08:35:11.511Z,93.10
2018-09-25T08:37:45.313Z,92.40
2018-09-25T08:40:19.012Z,91.80
2018-09-25T08:42:52.569Z,90.60
2018-09-25T08:45:26.313Z,91.00
2018-09-25T08:47:59.985Z,90.60
2018-09-25T08:50:33.740Z,90.50
2018-09-25T08:53:07.365Z,89.60
2018-09-25T08:55:41.827Z,89.50
2018-09-25T08:58:15.408Z,89.40
2018-09-25T09:00:49.186Z,88.80
2018-09-25T09:03:22.857Z,87.10
2018-09-25T09:05:56.417Z,87.20
2018-09-25T09:08:30.220Z,85.90
2018-09-25T09:11:03.888Z,85.00
2018-09-25T09:13:37.635Z,86.10
2018-09-25T09:16:11.270Z,85.80
2018-09-25T09:18:44.920Z,84.00
2018-09-25T09:21:18.702Z,84.40
2018-09-25T09:23:52.552Z,83.00
2018-09-25T09:26:26.548Z,81.70
2018-09-25T09:29:00.324Z,81.20
2018-09-25T09:31:34.082Z,80.90
2018-09-25T09:34:07.636Z,80.80
2018-09-25T09:36:41.440Z,79.10
2018-09-25T09:39:15.255Z,79.10
2018-09-25T09:41:49.067Z,77.20
2018-09-25T09:44:22.590Z,78.70
2018-09-25T09:46:56.332Z,78.40
2018-09-25T09:49:30.283Z,77.50
2018-09-25T09:52:04.014Z,75.30
2018-09-25T09:54:37.860Z,76.90
2018-09-25T09:57:11.615Z,75.40
2018-09-25T09:59:45.309Z,76.10
2018-09-25T10:02:19.068Z,74.90
2018-09-25T10:04:52.725Z,74.00
2018-09-25T10:07:26.412Z,73.30
2018-09-25T10:09:59.985Z,72.80
2018-09-25T10:12:33.821Z,71.80
2018-09-25T10:15:07.373Z,71.00
2018-09-25T10:17:41.036Z,71.10
2018-09-25T10:20:14.805Z,71.20
2018-09-25T10:22:48.419Z,70.70
2018-09-25T10:25:22.187Z,70.10
2018-09-25T10:27:55.900Z,69.50
2018-09-25T10:30:29.697Z,67.30
2018-09-25T10:33:03.453Z,67.20
2018-09-25T10:35:37.143Z,69.40
2018-09-25T10:38:10.838Z,67.70
2018-09-25T10:40:44.475Z,67.50
2018-09-25T10:43:18.262Z,66.20
2018-09-25T10:45:52.092Z,63.80
2018-09-25T10:48:25.657Z,64.70
2018-09-25T10:50:59.457Z,64.30
2018-09-25T10:53:33.171Z,62.40
2018-09-25T10:56:06.775Z,62.50
2018-09-25T10:58:40.461Z,60.20
2018-09-25T11:01:14.214Z,60.40
2018-09-25T11:03:47.945Z,58.20
2018-09-25T11:06:21.956Z,57.30
2018-09-25T11:08:55.648Z,55.90
2018-09-25T11:11:29.212Z,58.40
2018-09-25T11:14:03.001Z,56.00
2018-09-25T11:16:36.877Z,57.10
2018-09-25T11:19:10.730Z,56.20
2018-09-25T11:21:44.482Z,54.70
2018-09-25T11:24:18.260Z,50.90
2018-09-25T11:26:52.789Z,44.60
2018-09-25T11:29:27.166Z,38.00
2018-09-25T11:32:01.089Z,35.00
2018-09-25T11:34:34.792Z,32.90
2018-09-25T11:37:15.494Z,31.50
2018-09-25T11:39:49.207Z,29.40
2018-09-25T11:42:22.947Z,30.40
2018-09-25T11:44:56.543Z,29.00
2018-09-25T11:47:30.184Z,29.50
2018-09-25T11:50:03.895Z,28.80
2018-09-25T11:52:38.476Z,29.20
2018-09-25T11:55:12.177Z,31.10
2018-09-25T11:57:45.771Z,31.40
2018-09-25T12:00:19.340Z,31.10
2018-09-25T12:02:54.077Z,30.70
2018-09-25T12:05:27.873Z,29.90
2018-09-25T12:08:01.619Z,27.90
2018-09-25T12:10:35.201Z,27.80
2018-09-25T12:13:08.883Z,30.00
2018-09-25T12:15:42.621Z,30.60
2018-09-25T12:18:16.438Z,29.20
2018-09-25T12:20:50.293Z,27.60
2018-09-25T12:23:25.046Z,26.60
2018-09-25T12:25:58.687Z,26.00
2018-09-25T12:28:32.432Z,27.20
2018-09-25T12:31:06.128Z,27.00
2018-09-25T12:33:40.007Z,26.80
2018-09-25T12:36:13.682Z,30.70
2018-09-25T12:38:47.419Z,34.40
2018-09-25T12:41:21.223Z,40.50
2018-09-25T12:43:54.993Z,44.30
2018-09-25T12:46:28.741Z,50.00
2018-09-25T12:49:02.328Z,51.60
2018-09-25T12:51:35.980Z,51.10
2018-09-25T12:54:09.707Z,47.80
2018-09-25T12:56:43.437Z,42.90
2018-09-25T12:59:17.128Z,41.00
2018-09-25T13:01:50.950Z,36.20
2018-09-25T13:04:24.838Z,33.50
2018-09-25T13:06:58.559Z,30.80
2018-09-25T13:09:32.126Z,30.20
2018-09-25T13:12:05.763Z,30.90
2018-09-25T13:14:39.376Z,34.50
2018-09-25T13:17:13.014Z,37.60
2018-09-25T13:19:46.746Z,40.70
2018-09-25T13:22:20.245Z,44.20
2018-09-25T13:24:54.010Z,45.50
2018-09-25T13:27:28.117Z,45.30
2018-09-25T13:30:01.911Z,47.20
2018-09-25T13:32:35.696Z,47.40
2018-09-25T13:35:09.564Z,49.20
2018-09-25T13:37:43.155Z,50.80
2018-09-25T13:40:16.877Z,51.00
2018-09-25T13:42:50.642Z,50.30
2018-09-25T13:45:24.320Z,50.40
2018-09-25T13:47:57.950Z,51.30
2018-09-25T13:50:31.847Z,51.20
2018-09-25T13:53:05.621Z,51.00
2018-09-25T13:55:39.464Z,50.90
2018-09-25T13:58:12.980Z,51.80
2018-09-25T14:00:46.718Z,51.40
2018-09-25T14:03:20.399Z,52.20
2018-09-25T14:05:54.127Z,54.20
2018-09-25T14:08:27.866Z,53.50
2018-09-25T14:11:01.548Z,54.80
2018-09-25T14:13:35.257Z,54.70
2018-09-25T14:16:09.199Z,54.90
2018-09-25T14:18:42.898Z,58.10
2018-09-25T14:21:16.564Z,58.00
2018-09-25T14:23:50.181Z,56.80
2018-09-25T14:26:23.951Z,56.20
2018-09-25T14:28:57.673Z,56.70
2018-09-25T14:31:31.492Z,55.40
2018-09-25T14:34:05.020Z,55.10
2018-09-25T14:36:38.690Z,54.00
2018-09-25T14:39:19.634Z,53.50
2018-09-25T14:41:53.399Z,53.70
2018-09-25T14:44:27.063Z,54.00
2018-09-25T14:47:00.718Z,52.60
2018-09-25T14:49:34.470Z,53.20
2018-09-25T14:52:08.395Z,54.10
2018-09-25T14:54:42.074Z,54.70
2018-09-25T14:57:15.928Z,53.80
2018-09-25T14:59:49.678Z,51.60
2018-09-25T15:02:23.354Z,50.70
2018-09-25T15:04:57.008Z,50.00
2018-09-25T15:07:30.847Z,48.60
2018-09-25T15:10:04.514Z,48.60
2018-09-25T15:12:38.382Z,48.90
2018-09-25T15:15:12.193Z,46.30
2018-09-25T15:17:45.817Z,41.80
2018-09-25T15:20:19.664Z,40.80
2018-09-25T15:22:53.388Z,42.70
2018-09-25T15:25:26.929Z,46.20
2018-09-25T15:28:00.577Z,47.50
2018-09-25T15:30:34.370Z,49.70
2018-09-25T15:33:08.177Z,48.70
2018-09-25T15:35:42.115Z,49.70
2018-09-25T15:38:15.856Z,49.80
2018-09-25T15:40:49.596Z,50.00
2018-09-25T15:43:23.267Z,51.00
2018-09-25T15:45:57.196Z,51.60
2018-09-25T15:48:30.833Z,52.60
2018-09-25T15:51:04.519Z,52.70
2018-09-25T15:53:39.018Z,51.80
2018-09-25T15:56:12.799Z,53.00
2018-09-25T15:58:46.549Z,54.20
2018-09-25T16:01:20.436Z,55.70
2018-09-25T16:03:55.004Z,54.80
2018-09-25T16:06:28.560Z,55.10
2018-09-25T16:09:02.393Z,54.80
2018-09-25T16:11:36.131Z,56.00
2018-09-25T16:14:09.868Z,56.60
2018-09-25T16:16:43.516Z,56.90
2018-09-25T16:19:17.309Z,57.70
2018-09-25T16:21:50.909Z,57.30
2018-09-25T16:24:24.523Z,57.20
2018-09-25T16:26:58.283Z,57.20
2018-09-25T16:29:32.171Z,57.10
2018-09-25T16:32:05.945Z,59.60
2018-09-25T16:34:40.299Z,59.50
2018-09-25T16:37:13.971Z,59.10
2018-09-25T16:39:47.676Z,60.30
2018-09-25T16:42:21.543Z,60.80
2018-09-25T16:44:55.375Z,60.90
2018-09-25T16:47:29.201Z,61.90
2018-09-25T16:50:05.795Z,63.30
2018-09-25T16:52:39.637Z,63.30
2018-09-25T16:55:13.382Z,64.10
2018-09-25T16:57:47.184Z,64.30
2018-09-25T17:00:20.789Z,65.60
2018-09-25T17:02:54.590Z,66.80
2018-09-25T17:05:28.377Z,67.80
2018-09-25T17:08:02.260Z,67.50
2018-09-25T17:10:35.876Z,67.70
2018-09-25T17:16:14.071Z,69.10
2018-09-25T17:18:47.814Z,69.60
2018-09-25T17:21:21.608Z,69.80
2018-09-25T17:23:55.391Z,69.60
2018-09-25T17:26:29.129Z,69.90
2018-09-25T17:29:02.831Z,70.80
2018-09-25T17:31:36.617Z,71.00
2018-09-25T17:34:10.295Z,70.40
2018-09-25T17:36:44.176Z,70.30
2018-09-25T17:39:17.827Z,70.60
2018-09-25T17:41:51.537Z,71.50
2018-09-25T17:44:25.158Z,71.20
2018-09-25T17:46:58.960Z,71.60
2018-09-25T17:49:32.703Z,71.50
2018-09-25T17:52:06.568Z,71.40
2018-09-25T17:54:40.276Z,71.40
2018-09-25T17:57:14.054Z,70.40
2018-09-25T17:59:47.607Z,69.80
2018-09-25T18:02:21.274Z,70.20
2018-09-25T18:04:55.025Z,70.40
2018-09-25T18:07:28.845Z,70.50
2018-09-25T18:10:02.464Z,70.40
2018-09-25T18:12:36.100Z,70.40
2018-09-25T18:15:10.230Z,70.80
2018-09-25T18:17:43.845Z,70.80
2018-09-25T18:20:17.738Z,70.30
2018-09-25T18:22:51.543Z,70.70
2018-09-25T18:25:25.231Z,70.40
2018-09-25T18:27:59.583Z,70.40
2018-09-25T18:30:33.573Z,70.30
2018-09-25T18:33:07.386Z,70.00
2018-09-25T18:35:41.176Z,69.90
2018-09-25T18:38:15.700Z,70.40
2018-09-25T18:40:49.604Z,70.20
2018-09-25T18:43:23.394Z,70.50
2018-09-25T18:45:57.156Z,70.50
2018-09-25T18:48:30.935Z,70.70
2018-09-25T18:51:04.705Z,71.20
2018-09-25T18:53:38.530Z,71.10
2018-09-25T18:56:12.213Z,71.20
2018-09-25T18:58:46.145Z,72.20
2018-09-25T19:01:20.058Z,72.10
2018-09-25T19:03:53.880Z,72.30
2018-09-25T19:06:27.483Z,72.20
2018-09-25T19:09:01.366Z,72.60
2018-09-25T19:11:35.047Z,73.70
2018-09-25T19:14:08.672Z,73.60
2018-09-25T19:16:42.719Z,74.10
2018-09-25T19:19:17.439Z,74.30
2018-09-25T19:21:52.599Z,74.50
2018-09-25T19:24:27.827Z,74.60
2018-09-25T19:27:03.267Z,74.60
2018-09-25T19:29:37.738Z,75.40
2018-09-25T19:32:11.694Z,75.70
2018-09-25T19:34:45.473Z,76.00
2018-09-25T19:37:19.218Z,76.30
2018-09-25T19:39:52.969Z,76.70
2018-09-25T19:42:27.945Z,76.70
2018-09-25T19:45:01.761Z,77.30
2018-09-25T19:47:35.400Z,76.90
2018-09-25T19:50:10.235Z,77.10
2018-09-25T19:52:43.921Z,77.10
2018-09-25T19:55:17.833Z,77.80
2018-09-25T19:57:51.688Z,78.30
2018-09-25T20:00:25.424Z,78.30
2018-09-25T20:02:59.193Z,78.90
2018-09-25T20:05:33.144Z,79.40
2018-09-25T20:08:06.959Z,79.40
2018-09-25T20:10:40.741Z,79.60
2018-09-25T20:13:14.701Z,79.90
2018-09-25T20:15:48.422Z,79.70
2018-09-25T20:18:22.223Z,80.50
2018-09-25T20:20:56.297Z,80.90
2018-09-25T20:23:30.100Z,81.10
2018-09-25T20:26:03.867Z,81.20
2018-09-25T20:28:37.803Z,81.10
2018-09-25T20:31:11.652Z,81.00
2018-09-25T20:33:45.952Z,81.40
2018-09-25T20:36:19.563Z,82.50
2018-09-25T20:38:53.401Z,82.40
2018-09-25T20:41:27.173Z,82.80
2018-09-25T20:44:01.097Z,82.30
2018-09-25T20:46:38.597Z,83.20
2018-09-25T20:49:12.505Z,82.90
2018-09-25T20:51:46.365Z,83.60
2018-09-25T20:54:20.321Z,83.20
2018-09-25T20:56:53.930Z,83.70
2018-09-25T20:59:27.945Z,83.40
2018-09-25T21:02:01.921Z,83.60
2018-09-25T21:04:35.670Z,84.00
2018-09-25T21:07:09.505Z,84.60
2018-09-25T21:09:43.384Z,84.60
2018-09-25T21:12:17.177Z,84.90
2018-09-25T21:14:50.916Z,85.00
2018-09-25T21:17:24.657Z,85.10
2018-09-25T21:19:58.434Z,85.70
2018-09-25T21:22:32.251Z,86.30
2018-09-25T21:25:05.929Z,86.30
2018-09-25T21:27:39.713Z,87.00
2018-09-25T21:30:13.460Z,87.40
2018-09-25T21:32:47.236Z,87.80
2018-09-25T21:35:20.931Z,88.50
2018-09-25T21:38:11.056Z,88.30
2018-09-25T21:40:44.980Z,88.00
2018-09-25T21:43:18.726Z,87.50
2018-09-25T21:45:54.324Z,87.40
2018-09-25T21:48:28.020Z,87.90
2018-09-25T21:51:03.586Z,88.60
2018-09-25T21:53:47.154Z,88.30
2018-09-25T21:56:24.924Z,88.00
2018-09-25T21:58:58.912Z,88.70
2018-09-25T22:01:32.647Z,89.10
2018-09-25T22:04:07.242Z,89.10
2018-09-25T22:06:40.837Z,89.40
2018-09-25T22:09:14.548Z,88.90
2018-09-25T22:11:48.200Z,88.60
2018-09-25T22:14:22.489Z,89.40
2018-09-25T22:16:56.237Z,89.80
2018-09-25T22:19:29.922Z,89.40
2018-09-25T22:22:03.761Z,89.70
2018-09-25T22:24:37.390Z,90.30
2018-09-25T22:27:11.107Z,90.40
2018-09-25T22:29:45.675Z,91.10
2018-09-25T22:32:20.033Z,91.30
2018-09-25T22:34:54.445Z,91.40
2018-09-25T22:37:28.216Z,91.20
2018-09-25T22:40:01.832Z,91.30
2018-09-25T22:42:35.751Z,91.40
2018-09-25T22:45:09.591Z,91.60
2018-09-25T22:47:43.185Z,91.70
2018-09-25T22:50:16.904Z,91.60
2018-09-25T22:52:50.712Z,92.20
2018-09-25T22:55:24.485Z,92.10
2018-09-25T22:57:58.180Z,91.90
2018-09-25T23:00:31.855Z,91.30
2018-09-25T23:03:06.450Z,91.50
2018-09-25T23:05:40.202Z,92.00
2018-09-25T23:08:13.849Z,92.30
2018-09-25T23:10:47.587Z,91.60
2018-09-25T23:13:22.044Z,92.00
2018-09-25T23:15:55.929Z,92.50
2018-09-25T23:18:29.688Z,93.20
2018-09-25T23:21:03.347Z,92.60
2018-09-25T23:23:37.005Z,92.90
2018-09-25T23:26:10.807Z,93.60
2018-09-25T23:28:44.524Z,93.40
2018-09-25T23:31:18.257Z,93.10
2018-09-25T23:33:51.913Z,92.90
2018-09-25T23:36:25.737Z,92.80
2018-09-25T23:39:02.364Z,92.90
2018-09-25T23:42:36.104Z,93.10
2018-09-25T23:45:09.995Z,93.00
2018-09-25T23:47:43.560Z,93.40
2018-09-25T23:50:19.055Z,93.50
2018-09-25T23:53:04.624Z,94.10
2018-09-25T23:55:37.462Z,93.80
2018-09-25T23:58:15.331Z,93.90
